GPS

Přidat téma
Téma reakcí autor poslední
Relive - záznam trasy 37/37 sniperfull 25.3.19 18:36
Strava.com - zkusenosti, rady 1233/1233 losik_p 25.3.19 17:50
Klub uživatelů Edge 520 1761/1761 MaPa 25.3.19 10:17
Computer jako ukazatel navigace z mobilu 4/4 NikolasCZ 24.3.19 08:10
Výběr „chytrých hodinek“ (sporttesteru) 134/134 Petr18 23.3.19 15:46
Sigma Pure GPS 184/184 bezdratova.sprcha 23.3.19 14:57
Mapy.cz a trackování (.GPX) 8/8 nikeid 23.3.19 12:50
Garmin - dobíjení z powerbanky za stálého navigovani 12/12 JirkaMTB 22.3.19 19:08
Garmin 820 první postřehy a otazníky 912/912 BB 22.3.19 13:08
Zkušenosti iGPSPORT computery 16/16 tompca 22.3.19 10:54
Fenix 3 33/33 pavelxy 21.3.19 17:06
Mobil na řidítka 34/34 Peaker 20.3.19 16:36
Uživatelé Bryton Rider 100, 310, 330, 530 rady, triky, zkušenosti 255/255 Pijer 20.3.19 14:20
Sigma ROX 11 525/525 Contador 19.3.19 01:19
Sigma Rox 11 GPS 1/1 Angus 18.3.19 15:31
Garmin Edge 1030 474/474 koko0925 17.3.19 11:11
GARMIN Edge 25 - zkušenosti 140/140 valysGG 15.3.19 23:01
Polar v800 vs. Garmin Fenix 3 377/377 cubas 14.3.19 17:33
Samsung Gear S3 4/4 JurekDJ 14.3.19 14:45
Sigma Rox 11 GPS 0/0 Angus 14.3.19 04:03
Sigma ROX 12 164/164 Autumnbiker 13.3.19 23:35
Polar Vantage V 153/153 JudyN15 13.3.19 13:11
Polar M460 nebo V650? 20/20 Pajasob 9.3.19 18:01
Garmin Edge 520 Plus 5/5 milan.v 1.3.19 15:53
Mapové podklady Garmin Fenix 3 15/15 Bouba 27.2.19 18:18
Garmin Edge 130 152/152 milan.v 20.2.19 19:45
Tachometr - GPS 37/37 BikeClubKovacek 16.2.19 06:51
Polar V650-snímače 6/6 Doktorzet 16.2.19 05:58
Program pro plánování na PC a posléze nahrát do Garmin eTrex... 6/6 Emkaape 14.2.19 22:21
Picasaweb zabit - co misto neho? 110/110 kralovek 12.2.19 14:35
Garmin Fenix 5 95/95 DoDo2 5.2.19 08:34
Sigma ROX 7.0 GPS 69/69 Walda 1.2.19 20:59
OSM pro Garmin - turistické značky a cyklostezky 92/92 milmat 24.1.19 18:33
navigace na kolo- hlasová 39/39 jery 23.1.19 21:22
Forerunner 935 7/7 Breakpain 17.1.19 16:53
iGS20E 2/2 blackpav 15.1.19 20:14
tepovka 34/34 vaku04 13.1.19 07:50
Tachometr pro přítelkyni s GPS do 4 tisíc 47/47 koky1987 11.1.19 10:49
cyklo aplikace 84/84 mdikson 10.1.19 07:33
Jak dostat waypoint/location snadno a rychle do Garmina 1/1 BB 31.12.18 23:08
Garmin 520 2/2 zakombo 28.12.18 13:30
Powerbanky pro nabíjení telefonu na 12 dní 162/162 Emkaape 15.12.18 13:46
Xiaomi Amazfit Pace - zkušenosti/rady/tipy 106/106 Razlik 5.12.18 09:22
Vaše zkušenosti s navigací na OLED displeji 76/76 jondoe 5.12.18 00:19
cyklonavigace VS outdoor mobil 18/18 Peaker 30.11.18 21:03
SPOT Gen3/Trace 6/6 fliicek 29.11.18 19:53
fitness náramek 175/175 roman II 24.11.18 21:52
Lezyne Super GPS HR nebo Sigma ROX 11? 58/58 Slam09 12.11.18 20:41
Prosím o radu u Stravy 2/2 Silvikuk 5.11.18 12:13
iWatch/STRAVA (sprárování,upload,synchronizace,atd..) 1/1 SkejT 1.11.18 07:40